sensor_id;sensor_type;location;lat;lon;timestamp;P1;durP1;ratioP1;P2;durP2;ratioP2
55758;SDS011;41678;52.126;20.664;2023-12-20T00:01:39;21.73;;;7.05;;
55758;SDS011;41678;52.126;20.664;2023-12-20T00:06:59;21.90;;;8.07;;
55758;SDS011;41678;52.126;20.664;2023-12-20T00:12:18;18.73;;;7.60;;
55758;SDS011;41678;52.126;20.664;2023-12-20T00:17:38;15.70;;;7.50;;
55758;SDS011;41678;52.126;20.664;2023-12-20T00:22:58;19.75;;;7.78;;
55758;SDS011;41678;52.126;20.664;2023-12-20T00:28:18;17.80;;;8.40;;
55758;SDS011;41678;52.126;20.664;2023-12-20T00:33:37;16.92;;;7.85;;
55758;SDS011;41678;52.126;20.664;2023-12-20T00:38:59;18.33;;;7.68;;
55758;SDS011;41678;52.126;20.664;2023-12-20T00:44:18;16.02;;;7.15;;
55758;SDS011;41678;52.126;20.664;2023-12-20T00:49:38;18.77;;;8.10;;
55758;SDS011;41678;52.126;20.664;2023-12-20T00:54:57;18.35;;;8.10;;
55758;SDS011;41678;52.126;20.664;2023-12-20T01:00:17;31.70;;;8.30;;
55758;SDS011;41678;52.126;20.664;2023-12-20T01:05:37;18.70;;;7.38;;
55758;SDS011;41678;52.126;20.664;2023-12-20T01:10:56;13.73;;;7.05;;
55758;SDS011;41678;52.126;20.664;2023-12-20T01:47:01;13.40;;;7.32;;
55758;SDS011;41678;52.126;20.664;2023-12-20T01:52:21;12.40;;;5.47;;
55758;SDS011;41678;52.126;20.664;2023-12-20T01:57:40;17.58;;;6.70;;
55758;SDS011;41678;52.126;20.664;2023-12-20T02:03:02;12.23;;;5.90;;
55758;SDS011;41678;52.126;20.664;2023-12-20T02:08:22;17.88;;;7.07;;
55758;SDS011;41678;52.126;20.664;2023-12-20T02:13:46;13.38;;;5.85;;
55758;SDS011;41678;52.126;20.664;2023-12-20T02:19:07;13.32;;;6.53;;
55758;SDS011;41678;52.126;20.664;2023-12-20T02:24:33;14.07;;;7.40;;
55758;SDS011;41678;52.126;20.664;2023-12-20T02:29:52;11.15;;;5.93;;
55758;SDS011;41678;52.126;20.664;2023-12-20T02:35:11;12.10;;;6.00;;
55758;SDS011;41678;52.126;20.664;2023-12-20T02:40:31;12.18;;;5.45;;
55758;SDS011;41678;52.126;20.664;2023-12-20T02:45:51;14.65;;;5.97;;
55758;SDS011;41678;52.126;20.664;2023-12-20T02:51:11;13.25;;;5.82;;
55758;SDS011;41678;52.126;20.664;2023-12-20T02:56:34;12.50;;;5.30;;
55758;SDS011;41678;52.126;20.664;2023-12-20T03:01:54;14.05;;;5.30;;
55758;SDS011;41678;52.126;20.664;2023-12-20T03:07:13;11.20;;;4.82;;
55758;SDS011;41678;52.126;20.664;2023-12-20T03:12:32;10.90;;;4.63;;
55758;SDS011;41678;52.126;20.664;2023-12-20T03:17:52;9.35;;;4.35;;
55758;SDS011;41678;52.126;20.664;2023-12-20T03:23:12;11.75;;;5.43;;
55758;SDS011;41678;52.126;20.664;2023-12-20T03:28:31;9.82;;;4.20;;
55758;SDS011;41678;52.126;20.664;2023-12-20T03:33:51;10.10;;;5.55;;
55758;SDS011;41678;52.126;20.664;2023-12-20T03:39:13;10.15;;;5.13;;
55758;SDS011;41678;52.126;20.664;2023-12-20T03:44:32;11.40;;;4.35;;
55758;SDS011;41678;52.126;20.664;2023-12-20T03:49:52;9.38;;;4.22;;
55758;SDS011;41678;52.126;20.664;2023-12-20T03:55:12;12.60;;;4.68;;
55758;SDS011;41678;52.126;20.664;2023-12-20T04:00:32;10.27;;;4.45;;
55758;SDS011;41678;52.126;20.664;2023-12-20T04:05:51;7.70;;;3.38;;
55758;SDS011;41678;52.126;20.664;2023-12-20T04:11:10;8.18;;;3.88;;
55758;SDS011;41678;52.126;20.664;2023-12-20T04:16:30;10.00;;;4.20;;
55758;SDS011;41678;52.126;20.664;2023-12-20T04:21:50;10.07;;;4.68;;
55758;SDS011;41678;52.126;20.664;2023-12-20T04:27:10;10.27;;;4.13;;
55758;SDS011;41678;52.126;20.664;2023-12-20T04:32:30;7.75;;;4.00;;
55758;SDS011;41678;52.126;20.664;2023-12-20T04:37:50;9.45;;;3.97;;
55758;SDS011;41678;52.126;20.664;2023-12-20T04:43:10;8.77;;;4.32;;
55758;SDS011;41678;52.126;20.664;2023-12-20T04:48:29;12.50;;;4.68;;
55758;SDS011;41678;52.126;20.664;2023-12-20T04:53:49;10.23;;;4.55;;
55758;SDS011;41678;52.126;20.664;2023-12-20T04:59:08;13.82;;;5.50;;
55758;SDS011;41678;52.126;20.664;2023-12-20T05:04:28;10.75;;;5.28;;
55758;SDS011;41678;52.126;20.664;2023-12-20T05:09:47;12.15;;;5.55;;
55758;SDS011;41678;52.126;20.664;2023-12-20T05:15:06;9.60;;;4.88;;
55758;SDS011;41678;52.126;20.664;2023-12-20T05:20:26;9.82;;;4.97;;
55758;SDS011;41678;52.126;20.664;2023-12-20T05:25:46;9.20;;;4.43;;
55758;SDS011;41678;52.126;20.664;2023-12-20T05:31:05;7.93;;;4.10;;
55758;SDS011;41678;52.126;20.664;2023-12-20T05:36:26;12.20;;;5.22;;
55758;SDS011;41678;52.126;20.664;2023-12-20T05:41:45;11.02;;;4.60;;
55758;SDS011;41678;52.126;20.664;2023-12-20T05:47:05;8.77;;;4.18;;
55758;SDS011;41678;52.126;20.664;2023-12-20T05:52:25;12.27;;;5.43;;
55758;SDS011;41678;52.126;20.664;2023-12-20T05:57:44;8.95;;;4.57;;
55758;SDS011;41678;52.126;20.664;2023-12-20T06:03:04;10.80;;;5.00;;
55758;SDS011;41678;52.126;20.664;2023-12-20T06:08:24;9.65;;;5.05;;
55758;SDS011;41678;52.126;20.664;2023-12-20T06:13:43;11.55;;;5.72;;
55758;SDS011;41678;52.126;20.664;2023-12-20T06:19:03;9.88;;;4.85;;
55758;SDS011;41678;52.126;20.664;2023-12-20T06:24:26;11.40;;;5.72;;
55758;SDS011;41678;52.126;20.664;2023-12-20T06:29:47;10.63;;;5.43;;
55758;SDS011;41678;52.126;20.664;2023-12-20T06:35:08;10.55;;;5.40;;
55758;SDS011;41678;52.126;20.664;2023-12-20T06:40:51;14.65;;;6.47;;
55758;SDS011;41678;52.126;20.664;2023-12-20T06:46:20;11.60;;;5.75;;
55758;SDS011;41678;52.126;20.664;2023-12-20T06:51:43;11.70;;;5.90;;
55758;SDS011;41678;52.126;20.664;2023-12-20T12:49:40;13.05;;;3.55;;
55758;SDS011;41678;52.126;20.664;2023-12-20T12:54:59;7.97;;;4.27;;
55758;SDS011;41678;52.126;20.664;2023-12-20T13:00:19;7.38;;;3.45;;
55758;SDS011;41678;52.126;20.664;2023-12-20T13:05:38;10.52;;;4.00;;
55758;SDS011;41678;52.126;20.664;2023-12-20T13:10:58;10.65;;;4.13;;
55758;SDS011;41678;52.126;20.664;2023-12-20T13:16:20;11.65;;;5.13;;
55758;SDS011;41678;52.126;20.664;2023-12-20T13:21:40;16.38;;;5.45;;
55758;SDS011;41678;52.126;20.664;2023-12-20T13:27:00;9.68;;;4.20;;
55758;SDS011;41678;52.126;20.664;2023-12-20T13:32:20;21.85;;;6.00;;
55758;SDS011;41678;52.126;20.664;2023-12-20T13:37:40;12.05;;;5.07;;
55758;SDS011;41678;52.126;20.664;2023-12-20T13:43:00;9.68;;;4.72;;
55758;SDS011;41678;52.126;20.664;2023-12-20T13:48:20;13.85;;;5.20;;
55758;SDS011;41678;52.126;20.664;2023-12-20T13:59:30;11.50;;;4.95;;
55758;SDS011;41678;52.126;20.664;2023-12-20T14:04:50;10.25;;;4.13;;
55758;SDS011;41678;52.126;20.664;2023-12-20T14:10:09;12.27;;;5.28;;
55758;SDS011;41678;52.126;20.664;2023-12-20T14:15:30;18.73;;;5.37;;
55758;SDS011;41678;52.126;20.664;2023-12-20T14:20:55;11.93;;;4.40;;
55758;SDS011;41678;52.126;20.664;2023-12-20T14:26:14;11.13;;;4.47;;
55758;SDS011;41678;52.126;20.664;2023-12-20T14:31:38;9.52;;;3.40;;
55758;SDS011;41678;52.126;20.664;2023-12-20T14:37:00;9.85;;;4.18;;
55758;SDS011;41678;52.126;20.664;2023-12-20T14:42:19;8.80;;;3.70;;
55758;SDS011;41678;52.126;20.664;2023-12-20T14:47:39;8.57;;;3.53;;
55758;SDS011;41678;52.126;20.664;2023-12-20T14:52:58;10.07;;;3.65;;
55758;SDS011;41678;52.126;20.664;2023-12-20T14:58:19;13.25;;;4.03;;
55758;SDS011;41678;52.126;20.664;2023-12-20T15:03:39;11.68;;;4.82;;
55758;SDS011;41678;52.126;20.664;2023-12-20T15:08:59;10.20;;;3.83;;
55758;SDS011;41678;52.126;20.664;2023-12-20T15:14:19;11.13;;;4.38;;
55758;SDS011;41678;52.126;20.664;2023-12-20T15:19:39;14.85;;;4.80;;
55758;SDS011;41678;52.126;20.664;2023-12-20T15:25:02;16.27;;;4.95;;
55758;SDS011;41678;52.126;20.664;2023-12-20T15:30:23;15.17;;;5.43;;
55758;SDS011;41678;52.126;20.664;2023-12-20T15:35:45;14.77;;;4.10;;
55758;SDS011;41678;52.126;20.664;2023-12-20T15:41:05;17.70;;;6.03;;
55758;SDS011;41678;52.126;20.664;2023-12-20T15:46:24;18.83;;;5.68;;
55758;SDS011;41678;52.126;20.664;2023-12-20T15:51:44;16.00;;;4.43;;
55758;SDS011;41678;52.126;20.664;2023-12-20T15:57:04;16.25;;;5.35;;
55758;SDS011;41678;52.126;20.664;2023-12-20T16:02:23;11.60;;;5.07;;
55758;SDS011;41678;52.126;20.664;2023-12-20T16:07:43;11.88;;;4.43;;
55758;SDS011;41678;52.126;20.664;2023-12-20T16:13:03;14.43;;;4.93;;
55758;SDS011;41678;52.126;20.664;2023-12-20T16:18:23;11.02;;;4.28;;
55758;SDS011;41678;52.126;20.664;2023-12-20T16:23:43;13.90;;;5.53;;
55758;SDS011;41678;52.126;20.664;2023-12-20T16:29:02;13.48;;;5.47;;
55758;SDS011;41678;52.126;20.664;2023-12-20T16:34:22;21.17;;;7.35;;
55758;SDS011;41678;52.126;20.664;2023-12-20T16:39:42;12.50;;;4.70;;
55758;SDS011;41678;52.126;20.664;2023-12-20T16:45:01;11.52;;;4.28;;
55758;SDS011;41678;52.126;20.664;2023-12-20T16:50:23;12.90;;;5.60;;
55758;SDS011;41678;52.126;20.664;2023-12-20T16:55:42;8.70;;;4.03;;
55758;SDS011;41678;52.126;20.664;2023-12-20T17:01:03;21.30;;;6.63;;
55758;SDS011;41678;52.126;20.664;2023-12-20T17:06:24;19.42;;;6.07;;
55758;SDS011;41678;52.126;20.664;2023-12-20T17:11:46;12.05;;;5.95;;
55758;SDS011;41678;52.126;20.664;2023-12-20T17:17:05;18.70;;;6.30;;
55758;SDS011;41678;52.126;20.664;2023-12-20T17:22:25;10.35;;;4.53;;
55758;SDS011;41678;52.126;20.664;2023-12-20T17:27:44;18.83;;;5.65;;
55758;SDS011;41678;52.126;20.664;2023-12-20T17:33:04;12.48;;;5.28;;
55758;SDS011;41678;52.126;20.664;2023-12-20T17:38:24;14.98;;;4.13;;
55758;SDS011;41678;52.126;20.664;2023-12-20T17:43:44;10.27;;;3.95;;
55758;SDS011;41678;52.126;20.664;2023-12-20T17:49:04;10.65;;;3.78;;
55758;SDS011;41678;52.126;20.664;2023-12-20T17:54:24;22.38;;;4.15;;
55758;SDS011;41678;52.126;20.664;2023-12-20T17:59:44;11.52;;;3.83;;
55758;SDS011;41678;52.126;20.664;2023-12-20T18:05:04;10.93;;;3.45;;
55758;SDS011;41678;52.126;20.664;2023-12-20T18:10:24;13.25;;;3.75;;
55758;SDS011;41678;52.126;20.664;2023-12-20T18:15:44;11.20;;;3.63;;
55758;SDS011;41678;52.126;20.664;2023-12-20T18:21:04;13.23;;;3.40;;
55758;SDS011;41678;52.126;20.664;2023-12-20T18:26:24;9.40;;;3.35;;
55758;SDS011;41678;52.126;20.664;2023-12-20T18:31:46;17.80;;;3.80;;
55758;SDS011;41678;52.126;20.664;2023-12-20T18:37:25;17.45;;;5.13;;
55758;SDS011;41678;52.126;20.664;2023-12-20T18:42:45;14.40;;;4.28;;
55758;SDS011;41678;52.126;20.664;2023-12-20T18:48:05;12.57;;;3.85;;
55758;SDS011;41678;52.126;20.664;2023-12-20T18:53:25;18.70;;;4.10;;
55758;SDS011;41678;52.126;20.664;2023-12-20T18:58:45;15.98;;;5.45;;
55758;SDS011;41678;52.126;20.664;2023-12-20T19:04:06;15.95;;;4.72;;
55758;SDS011;41678;52.126;20.664;2023-12-20T19:09:26;13.05;;;4.70;;
55758;SDS011;41678;52.126;20.664;2023-12-20T19:14:45;9.95;;;3.53;;
55758;SDS011;41678;52.126;20.664;2023-12-20T19:20:05;4.03;;;2.00;;
55758;SDS011;41678;52.126;20.664;2023-12-20T19:25:25;4.05;;;1.08;;
55758;SDS011;41678;52.126;20.664;2023-12-20T19:30:45;6.32;;;1.92;;
55758;SDS011;41678;52.126;20.664;2023-12-20T19:36:05;6.70;;;1.02;;
55758;SDS011;41678;52.126;20.664;2023-12-20T19:41:26;6.88;;;2.25;;
55758;SDS011;41678;52.126;20.664;2023-12-20T19:46:46;5.03;;;1.60;;
55758;SDS011;41678;52.126;20.664;2023-12-20T19:52:07;8.37;;;1.73;;
55758;SDS011;41678;52.126;20.664;2023-12-20T19:57:26;3.67;;;1.27;;
55758;SDS011;41678;52.126;20.664;2023-12-20T20:02:46;6.30;;;1.52;;
55758;SDS011;41678;52.126;20.664;2023-12-20T20:08:06;6.93;;;2.40;;
55758;SDS011;41678;52.126;20.664;2023-12-20T20:13:26;4.10;;;1.17;;
55758;SDS011;41678;52.126;20.664;2023-12-20T20:18:45;5.00;;;1.60;;
55758;SDS011;41678;52.126;20.664;2023-12-20T20:24:05;7.28;;;2.20;;
55758;SDS011;41678;52.126;20.664;2023-12-20T20:29:26;5.55;;;1.92;;
55758;SDS011;41678;52.126;20.664;2023-12-20T20:34:45;5.70;;;2.03;;
55758;SDS011;41678;52.126;20.664;2023-12-20T20:40:06;4.57;;;1.55;;
55758;SDS011;41678;52.126;20.664;2023-12-20T20:45:26;5.07;;;1.67;;
55758;SDS011;41678;52.126;20.664;2023-12-20T20:50:45;6.45;;;2.20;;
55758;SDS011;41678;52.126;20.664;2023-12-20T20:56:05;8.70;;;2.95;;
55758;SDS011;41678;52.126;20.664;2023-12-20T21:01:25;5.95;;;2.03;;
55758;SDS011;41678;52.126;20.664;2023-12-20T21:06:44;12.38;;;1.77;;
55758;SDS011;41678;52.126;20.664;2023-12-20T21:17:26;3.83;;;1.15;;
55758;SDS011;41678;52.126;20.664;2023-12-20T21:22:45;3.83;;;1.48;;
55758;SDS011;41678;52.126;20.664;2023-12-20T21:28:04;4.10;;;1.80;;
55758;SDS011;41678;52.126;20.664;2023-12-20T21:33:24;10.20;;;2.13;;
55758;SDS011;41678;52.126;20.664;2023-12-20T21:38:44;4.70;;;1.88;;
55758;SDS011;41678;52.126;20.664;2023-12-20T21:44:03;10.38;;;2.90;;
55758;SDS011;41678;52.126;20.664;2023-12-20T21:49:23;11.13;;;3.50;;
55758;SDS011;41678;52.126;20.664;2023-12-20T21:54:55;15.82;;;4.53;;
55758;SDS011;41678;52.126;20.664;2023-12-20T22:00:15;9.13;;;3.17;;
55758;SDS011;41678;52.126;20.664;2023-12-20T22:05:36;6.72;;;2.38;;
55758;SDS011;41678;52.126;20.664;2023-12-20T22:10:57;10.52;;;2.10;;
55758;SDS011;41678;52.126;20.664;2023-12-20T22:16:16;11.75;;;2.83;;
55758;SDS011;41678;52.126;20.664;2023-12-20T22:21:36;6.35;;;2.20;;
55758;SDS011;41678;52.126;20.664;2023-12-20T22:26:55;6.25;;;2.30;;
55758;SDS011;41678;52.126;20.664;2023-12-20T22:32:16;4.22;;;1.35;;
55758;SDS011;41678;52.126;20.664;2023-12-20T22:37:36;10.35;;;3.40;;
55758;SDS011;41678;52.126;20.664;2023-12-20T22:42:55;14.00;;;4.18;;
55758;SDS011;41678;52.126;20.664;2023-12-20T22:48:15;15.65;;;4.38;;
55758;SDS011;41678;52.126;20.664;2023-12-20T22:53:34;11.00;;;3.58;;
55758;SDS011;41678;52.126;20.664;2023-12-20T22:58:54;18.17;;;5.85;;
55758;SDS011;41678;52.126;20.664;2023-12-20T23:04:13;17.95;;;4.40;;
55758;SDS011;41678;52.126;20.664;2023-12-20T23:09:33;11.63;;;3.17;;
55758;SDS011;41678;52.126;20.664;2023-12-20T23:14:53;10.98;;;3.90;;
55758;SDS011;41678;52.126;20.664;2023-12-20T23:20:12;10.18;;;2.65;;
55758;SDS011;41678;52.126;20.664;2023-12-20T23:25:32;4.10;;;1.52;;
55758;SDS011;41678;52.126;20.664;2023-12-20T23:30:52;6.95;;;2.30;;
55758;SDS011;41678;52.126;20.664;2023-12-20T23:36:12;10.52;;;2.95;;
55758;SDS011;41678;52.126;20.664;2023-12-20T23:41:31;10.25;;;2.90;;
55758;SDS011;41678;52.126;20.664;2023-12-20T23:46:51;6.70;;;2.83;;
55758;SDS011;41678;52.126;20.664;2023-12-20T23:52:10;6.97;;;2.40;;
55758;SDS011;41678;52.126;20.664;2023-12-20T23:57:30;6.38;;;2.60;;
